Time;durP1;ratioP1;P1;durP2;ratioP2;P2;SDS_P1;SDS_P2;PMS_P1;PMS_P2;Temp;Humidity;BMP_temperature;BMP_pressure;BME280_temperature;BME280_humidity;BME280_pressure;Samples;Min_cycle;Max_cycle;Signal;HPM_P1;HPM_P2
2023/06/10 00:02:18;;;;;;;;;8.25;8.00;;;;;15.55;100.00;98100.75;4816264;29;102438;-76
2023/06/10 00:04:53;;;;;;;;;6.75;6.75;;;;;15.56;100.00;98105.13;4817937;28;102508;-76
2023/06/10 00:07:40;;;;;;;;;6.00;6.00;;;;;15.57;100.00;98095.91;4812982;28;103067;-75
2023/06/10 00:10:26;;;;;;;;;6.50;6.50;;;;;15.59;100.00;98099.19;4815136;28;102530;-76
2023/06/10 00:13:12;;;;;;;;;7.50;6.25;;;;;15.58;100.00;98094.81;4814131;28;103555;-75
2023/06/10 00:15:46;;;;;;;;;5.75;5.50;;;;;15.58;100.00;98095.63;4817738;28;102676;-75
2023/06/10 00:18:14;;;;;;;;;7.75;6.75;;;;;15.59;100.00;98101.91;4817252;29;104099;-75
2023/06/10 00:20:42;;;;;;;;;5.50;5.50;;;;;15.56;100.00;98100.50;4820591;28;102327;-75
2023/06/10 00:23:09;;;;;;;;;5.25;5.00;;;;;15.55;100.00;98106.19;4817052;28;102479;-75
2023/06/10 00:25:36;;;;;;;;;5.00;5.00;;;;;15.54;100.00;98099.09;4819539;28;102127;-75
2023/06/10 00:28:04;;;;;;;;;3.00;2.75;;;;;15.55;100.00;98107.03;4817038;29;104209;-75
2023/06/10 00:30:31;;;;;;;;;5.00;4.75;;;;;15.56;100.00;98102.41;4817935;29;102779;-76
2023/06/10 00:32:58;;;;;;;;;5.50;2.25;;;;;15.58;100.00;98111.97;4816323;28;102303;-76
2023/06/10 00:35:25;;;;;;;;;2.00;2.00;;;;;15.61;100.00;98116.97;4815953;28;102670;-76
2023/06/10 00:37:52;;;;;;;;;4.00;4.00;;;;;15.63;100.00;98111.25;4815751;28;104022;-76
2023/06/10 00:40:19;;;;;;;;;3.00;3.00;;;;;15.64;100.00;98121.09;4813083;28;102450;-76
2023/06/10 00:42:46;;;;;;;;;3.50;3.00;;;;;15.67;100.00;98117.84;4815522;28;102178;-75
2023/06/10 00:45:13;;;;;;;;;4.50;4.50;;;;;15.66;100.00;98113.50;4817218;28;102007;-75
2023/06/10 00:47:40;;;;;;;;;4.00;4.00;;;;;15.68;100.00;98126.88;4818913;28;108751;-75
2023/06/10 00:50:07;;;;;;;;;2.00;2.00;;;;;15.69;100.00;98123.91;4815090;28;102456;-75
2023/06/10 00:52:35;;;;;;;;;3.00;3.00;;;;;15.71;100.00;98115.50;4815326;28;103379;-75
2023/06/10 00:55:03;;;;;;;;;2.67;2.67;;;;;15.72;100.00;98123.41;4816422;28;104919;-75
2023/06/10 00:57:30;;;;;;;;;4.50;4.50;;;;;15.73;100.00;98125.06;4815541;28;104027;-76
2023/06/10 00:59:57;;;;;;;;;3.75;3.75;;;;;15.74;100.00;98124.00;4815313;28;102644;-75
2023/06/10 01:02:24;;;;;;;;;4.33;4.00;;;;;15.76;100.00;98126.50;4815164;28;102055;-75
2023/06/10 01:04:59;;;;;;;;;5.00;4.75;;;;;15.77;100.00;98122.66;4814949;28;102185;-75
2023/06/10 01:08:12;;;;;;;;;3.67;3.67;;;;;15.60;100.00;98092.66;4812567;28;103267;-75
2023/06/10 01:11:07;;;;;;;;;3.25;3.25;;;;;15.80;100.00;98119.47;4805239;28;102594;-75
2023/06/10 01:13:54;;;;;;;;;2.75;2.75;;;;;15.82;100.00;98129.03;4812577;28;102467;-75
2023/06/10 01:16:48;;;;;;;;;4.50;4.50;;;;;15.70;100.00;98105.66;4823660;28;102305;-75
2023/06/10 01:19:23;;;;;;;;;3.00;3.00;;;;;15.82;100.00;98128.22;4815273;28;107433;-75
2023/06/10 01:21:51;;;;;;;;;4.00;4.00;;;;;15.83;100.00;98124.41;4816769;28;103591;-75
2023/06/10 01:24:19;;;;;;;;;3.00;2.33;;;;;15.83;100.00;98124.41;4814323;28;101972;-75
2023/06/10 01:26:50;;;;;;;;;4.00;3.00;;;;;15.84;100.00;98124.19;4815935;28;102582;-75
2023/06/10 01:29:22;;;;;;;;;4.75;4.25;;;;;15.84;100.00;98128.81;4810769;28;104193;-75
2023/06/10 01:32:05;;;;;;;;;6.50;5.25;;;;;15.79;100.00;98128.72;4814190;28;102507;-75
2023/06/10 01:34:35;;;;;;;;;5.50;5.00;;;;;15.78;100.00;98125.16;4812579;28;102455;-75
2023/06/10 01:37:04;;;;;;;;;5.00;5.00;;;;;15.77;100.00;98128.94;4816402;28;103351;-75
2023/06/10 01:39:32;;;;;;;;;2.50;2.50;;;;;15.77;100.00;98130.84;4815085;28;104230;-75
2023/06/10 01:42:02;;;;;;;;;11.75;10.75;;;;;15.71;100.00;98127.22;4813708;28;102439;-75
2023/06/10 01:44:29;;;;;;;;;17.00;12.75;;;;;15.70;100.00;98136.47;4811859;28;103614;-75
2023/06/10 01:46:56;;;;;;;;;10.00;10.00;;;;;15.70;100.00;98135.63;4816760;28;102390;-75
2023/06/10 01:49:24;;;;;;;;;15.00;13.75;;;;;15.65;100.00;98144.53;4814084;28;104008;-76
2023/06/10 01:51:51;;;;;;;;;14.00;13.75;;;;;15.63;100.00;98136.59;4816561;28;102250;-75
2023/06/10 01:54:18;;;;;;;;;13.75;11.00;;;;;15.66;100.00;98145.38;4814151;28;103729;-75
2023/06/10 01:56:45;;;;;;;;;11.00;10.75;;;;;15.68;100.00;98141.31;4816977;28;103368;-76
2023/06/10 01:59:12;;;;;;;;;16.00;14.00;;;;;15.68;100.00;98145.94;4816986;28;103963;-75
2023/06/10 02:01:39;;;;;;;;;12.00;11.00;;;;;15.63;100.00;98146.69;4811913;29;102501;-76
2023/06/10 02:04:06;;;;;;;;;11.25;11.25;;;;;15.63;100.00;98136.59;4816847;28;102016;-75
2023/06/10 02:06:34;;;;;;;;;12.25;11.50;;;;;15.65;100.00;98136.38;4817467;28;103410;-75
2023/06/10 02:09:01;;;;;;;;;11.75;10.75;;;;;15.68;100.00;98144.03;4815934;28;104019;-75
2023/06/10 02:11:28;;;;;;;;;7.00;6.50;;;;;15.69;100.00;98137.53;4816395;29;104054;-75
2023/06/10 02:13:55;;;;;;;;;9.00;9.00;;;;;15.67;100.00;98142.38;4802002;28;103686;-75
2023/06/10 02:16:22;;;;;;;;;16.75;15.50;;;;;15.67;100.00;98139.66;4798163;29;103344;-75
2023/06/10 02:18:49;;;;;;;;;11.25;11.25;;;;;15.66;100.00;98135.31;4797556;29;104062;-76
2023/06/10 02:21:16;;;;;;;;;8.50;8.50;;;;;15.68;100.00;98138.59;4799258;28;102448;-75
2023/06/10 02:23:43;;;;;;;;;11.00;10.25;;;;;15.67;100.00;98134.22;4801280;29;102566;-76
2023/06/10 02:26:10;;;;;;;;;8.50;8.00;;;;;15.67;100.00;98136.94;4799192;29;103566;-76
2023/06/10 02:28:37;;;;;;;;;11.50;11.00;;;;;15.69;100.00;98140.25;4796682;29;103687;-76
2023/06/10 02:31:04;;;;;;;;;5.25;5.00;;;;;15.69;100.00;98134.81;4797322;29;102487;-76
2023/06/10 02:33:33;;;;;;;;;5.75;5.50;;;;;15.71;100.00;98138.13;4796871;28;102140;-76
2023/06/10 02:36:00;;;;;;;;;7.75;6.75;;;;;15.68;100.00;98132.31;4800662;29;102046;-76
2023/06/10 02:38:27;;;;;;;;;10.00;9.00;;;;;15.65;100.00;98143.72;4798162;29;104009;-76
2023/06/10 02:40:54;;;;;;;;;17.50;16.75;;;;;15.58;100.00;98149.31;4796080;29;102792;-77
2023/06/10 02:43:21;;;;;;;;;16.00;16.00;;;;;15.61;100.00;98151.56;4798580;29;103095;-77
2023/06/10 02:45:48;;;;;;;;;10.50;9.50;;;;;15.64;100.00;98148.34;4799818;29;103583;-77
2023/06/10 02:48:15;;;;;;;;;11.00;10.00;;;;;15.66;100.00;98151.66;4798643;29;104085;-77
2023/06/10 02:50:42;;;;;;;;;8.25;8.25;;;;;15.70;100.00;98143.81;4800618;29;103101;-77
2023/06/10 02:53:09;;;;;;;;;8.75;8.00;;;;;15.70;100.00;98152.81;4797273;29;103287;-76
2023/06/10 02:55:36;;;;;;;;;12.00;12.00;;;;;15.72;100.00;98150.66;4798408;28;103330;-76
2023/06/10 02:58:03;;;;;;;;;7.75;7.75;;;;;15.75;100.00;98155.66;4797477;29;103988;-76
2023/06/10 03:00:30;;;;;;;;;9.25;8.75;;;;;15.76;100.00;98143.66;4798211;29;102501;-77
2023/06/10 03:02:58;;;;;;;;;16.50;14.00;;;;;15.70;100.00;98155.56;4796862;29;102244;-76
2023/06/10 03:05:25;;;;;;;;;13.25;12.25;;;;;15.74;100.00;98153.16;4799147;29;105263;-76
2023/06/10 03:07:52;;;;;;;;;18.25;18.00;;;;;15.65;100.00;98155.44;4793743;29;103988;-76
2023/06/10 03:10:19;;;;;;;;;18.00;15.25;;;;;15.69;100.00;98159.34;4798383;29;102606;-76
2023/06/10 03:12:46;;;;;;;;;15.75;15.00;;;;;15.66;100.00;98157.09;4802640;29;103421;-77
2023/06/10 03:15:14;;;;;;;;;19.75;19.50;;;;;15.63;100.00;98152.13;4816589;29;102440;-76
2023/06/10 03:17:41;;;;;;;;;22.25;21.00;;;;;15.61;100.00;98155.13;4816059;28;108774;-76
2023/06/10 03:20:10;;;;;;;;;20.75;20.75;;;;;15.59;100.00;98150.97;4813171;28;102638;-76
2023/06/10 03:22:38;;;;;;;;;21.50;19.75;;;;;15.60;100.00;98158.06;4812063;29;102038;-76
2023/06/10 03:25:05;;;;;;;;;19.00;18.75;;;;;15.65;100.00;98155.44;4814998;28;102554;-76
2023/06/10 03:27:35;;;;;;;;;12.75;12.00;;;;;15.68;100.00;98165.84;4814898;28;104080;-76
2023/06/10 03:30:02;;;;;;;;;12.00;12.00;;;;;15.72;100.00;98168.91;4814354;28;102773;-76
2023/06/10 03:32:29;;;;;;;;;9.75;9.00;;;;;15.78;100.00;98168.78;4812047;29;102459;-76
2023/06/10 03:34:56;;;;;;;;;20.00;19.50;;;;;15.73;100.00;98178.75;4814148;28;104304;-76
2023/06/10 03:37:25;;;;;;;;;13.75;13.25;;;;;15.80;100.00;98174.00;4814401;29;104029;-75
2023/06/10 03:39:52;;;;;;;;;10.25;9.50;;;;;15.83;100.00;98179.78;4812628;28;102320;-76
2023/06/10 03:42:19;;;;;;;;;9.25;9.00;;;;;15.89;100.00;98184.25;4812923;29;102234;-76
2023/06/10 03:44:46;;;;;;;;;11.75;10.00;;;;;15.92;100.00;98172.84;4815683;29;102235;-76
2023/06/10 03:47:13;;;;;;;;;11.00;10.00;;;;;15.96;100.00;98176.75;4815734;28;104015;-76
2023/06/10 03:49:40;;;;;;;;;10.00;10.00;;;;;16.00;100.00;98179.78;4815800;29;102313;-76
2023/06/10 03:52:08;;;;;;;;;9.25;9.25;;;;;16.03;100.00;98190.19;4814951;29;102172;-76
2023/06/10 03:54:35;;;;;;;;;11.75;11.00;;;;;16.06;100.00;98189.72;4818031;28;102407;-76
2023/06/10 03:57:03;;;;;;;;;9.25;8.50;;;;;16.05;100.00;98188.91;4814150;29;103950;-76
2023/06/10 03:59:30;;;;;;;;;8.00;7.00;;;;;16.12;100.00;98187.94;4818919;29;102241;-76
2023/06/10 04:01:57;;;;;;;;;5.00;5.00;;;;;16.11;100.00;98180.81;4817761;28;102220;-76
2023/06/10 04:04:24;;;;;;;;;10.00;10.00;;;;;16.07;100.00;98189.47;4817474;28;102286;-76
2023/06/10 04:06:51;;;;;;;;;12.00;11.75;;;;;16.08;100.00;98188.41;4818885;29;104002;-76
2023/06/10 04:09:18;;;;;;;;;18.50;15.25;;;;;15.98;100.00;98182.78;4816568;29;102494;-77
2023/06/10 04:11:46;;;;;;;;;15.50;15.25;;;;;16.00;100.00;98199.72;4814044;28;102370;-77
2023/06/10 04:14:13;;;;;;;;;15.50;14.00;;;;;16.04;100.00;98195.41;4819427;28;102196;-76
2023/06/10 04:16:42;;;;;;;;;11.50;11.00;;;;;16.07;100.00;98194.13;4816706;29;103475;-76
2023/06/10 04:19:09;;;;;;;;;11.00;11.00;;;;;16.10;100.00;98195.50;4817757;28;102379;-76
2023/06/10 04:21:36;;;;;;;;;12.25;12.00;;;;;16.12;100.00;98185.19;4814261;29;102343;-76
2023/06/10 04:24:03;;;;;;;;;13.50;12.00;;;;;16.13;100.00;98184.94;4818791;29;102443;-76
2023/06/10 04:26:30;;;;;;;;;8.75;7.75;;;;;16.16;100.00;98195.38;4815522;29;105114;-76
2023/06/10 04:28:57;;;;;;;;;11.00;10.00;;;;;16.16;100.00;98194.53;4813469;28;102329;-76
2023/06/10 04:31:24;;;;;;;;;9.00;9.00;;;;;16.13;100.00;98192.28;4817145;29;102612;-76
2023/06/10 04:33:51;;;;;;;;;6.75;6.75;;;;;16.17;100.00;98197.00;4817619;29;102252;-76
2023/06/10 04:36:19;;;;;;;;;8.50;8.00;;;;;16.16;100.00;98200.00;4814813;28;104033;-76
2023/06/10 04:38:46;;;;;;;;;7.50;7.50;;;;;16.18;100.00;98197.81;4820103;29;107637;-76
2023/06/10 04:41:13;;;;;;;;;5.75;5.75;;;;;16.22;100.00;98199.00;4831611;28;102267;-76
2023/06/10 04:43:40;;;;;;;;;5.75;5.75;;;;;16.18;100.00;98185.03;4820685;28;102171;-77
2023/06/10 04:46:07;;;;;;;;;9.50;7.75;;;;;16.19;100.00;98194.03;4816427;28;103996;-76
2023/06/10 04:48:35;;;;;;;;;9.00;8.50;;;;;16.13;100.00;98189.56;4821045;28;102462;-76
2023/06/10 04:51:02;;;;;;;;;20.00;18.75;;;;;16.02;100.00;98191.31;4820615;28;102089;-76
2023/06/10 04:53:30;;;;;;;;;21.75;21.00;;;;;16.02;100.00;98183.94;4819773;28;102649;-75
2023/06/10 04:55:57;;;;;;;;;16.75;16.25;;;;;16.10;100.00;98190.06;4820367;28;104148;-75
2023/06/10 04:58:24;;;;;;;;;14.00;14.00;;;;;16.13;100.00;98195.00;4820720;28;102352;-75
2023/06/10 05:00:51;;;;;;;;;19.25;19.00;;;;;16.22;100.00;98199.81;4818220;28;102225;-75
2023/06/10 05:03:18;;;;;;;;;21.00;19.50;;;;;16.22;100.00;98199.81;4822280;28;102349;-75
2023/06/10 05:05:46;;;;;;;;;14.50;14.25;;;;;16.31;100.00;98200.22;4821096;28;104022;-75
2023/06/10 05:08:13;;;;;;;;;14.25;14.25;;;;;16.35;100.00;98204.13;4818004;28;102143;-75
2023/06/10 05:10:40;;;;;;;;;24.50;22.75;;;;;16.33;100.00;98203.56;4819919;28;102293;-75
2023/06/10 05:13:07;;;;;;;;;22.75;21.50;;;;;16.28;100.00;98214.38;4814907;28;102499;-75
2023/06/10 05:15:34;;;;;;;;;20.50;18.25;;;;;16.38;100.00;98209.94;4809307;28;103501;-75
2023/06/10 05:18:02;;;;;;;;;12.25;12.25;;;;;16.51;100.00;98209.59;4807897;29;102714;-75
2023/06/10 05:20:29;;;;;;;;;11.00;10.75;;;;;16.54;100.00;98216.44;4804614;29;102050;-74
2023/06/10 05:22:56;;;;;;;;;15.50;14.00;;;;;16.57;100.00;98213.22;4806683;28;102279;-75
2023/06/10 05:25:26;;;;;;;;;23.00;21.50;;;;;16.58;100.00;98220.38;4805263;28;104027;-75
2023/06/10 05:27:53;;;;;;;;;14.25;13.25;;;;;16.60;100.00;98218.22;4811164;29;102003;-75
2023/06/10 05:30:21;;;;;;;;;13.25;12.25;;;;;16.59;100.00;98216.56;4799151;29;104321;-75
2023/06/10 05:32:48;;;;;;;;;18.25;17.25;;;;;16.53;100.00;98225.72;4803589;28;102055;-75
2023/06/10 05:35:15;;;;;;;;;10.25;10.00;;;;;16.57;100.00;98212.41;4808276;29;104014;-75
2023/06/10 05:37:43;;;;;;;;;12.00;12.00;;;;;16.56;100.00;98210.75;4809012;29;102323;-75
2023/06/10 05:40:11;;;;;;;;;15.00;13.50;;;;;16.54;100.00;98216.44;4806668;28;102602;-74
2023/06/10 05:42:38;;;;;;;;;15.50;13.75;;;;;16.52;100.00;98222.16;4805318;28;102054;-75
2023/06/10 05:45:06;;;;;;;;;21.25;19.50;;;;;16.42;100.00;98223.91;4804511;28;104018;-75
2023/06/10 05:47:34;;;;;;;;;17.50;17.00;;;;;16.33;100.00;98219.94;4807956;28;102401;-75
2023/06/10 05:50:02;;;;;;;;;20.50;19.25;;;;;16.35;100.00;98226.78;4809160;28;104292;-74
2023/06/10 05:52:29;;;;;;;;;20.75;18.75;;;;;16.31;100.00;98224.78;4804937;29;102325;-75
2023/06/10 05:54:56;;;;;;;;;14.75;14.50;;;;;16.34;100.00;98230.59;4802894;28;103970;-76
2023/06/10 05:57:23;;;;;;;;;16.00;16.00;;;;;16.37;100.00;98238.28;4806772;28;102313;-76
2023/06/10 05:59:50;;;;;;;;;14.75;14.75;;;;;16.33;100.00;98239.03;4805309;29;102528;-76
2023/06/10 06:02:17;;;;;;;;;13.00;12.75;;;;;16.29;100.00;98235.97;4808211;29;102308;-77
2023/06/10 06:04:44;;;;;;;;;13.00;12.00;;;;;16.33;100.00;98233.56;4806360;28;108768;-77
2023/06/10 06:07:11;;;;;;;;;11.75;11.25;;;;;16.33;100.00;98241.75;4802991;28;102114;-77
2023/06/10 06:09:38;;;;;;;;;27.75;25.25;;;;;16.24;100.00;98235.06;4810503;28;102216;-77
2023/06/10 06:12:07;;;;;;;;;21.25;20.00;;;;;16.16;100.00;98238.19;4801795;28;102846;-79
2023/06/10 06:14:39;;;;;;;;;16.00;15.00;;;;;16.16;100.00;98238.19;4818482;28;104198;-79
2023/06/10 06:17:07;;;;;;;;;16.75;16.00;;;;;16.12;100.00;98237.81;4816384;28;102252;-78
2023/06/10 06:19:34;;;;;;;;;16.25;14.25;;;;;15.98;100.00;98209.22;4802125;29;102557;-78
2023/06/10 06:22:01;;;;;;;;;12.00;12.00;;;;;16.12;100.00;98247.94;4820138;28;102345;-78
2023/06/10 06:24:28;;;;;;;;;12.50;12.50;;;;;16.12;100.00;98245.22;4813133;28;103729;-77
2023/06/10 06:26:55;;;;;;;;;12.00;10.00;;;;;16.13;100.00;98244.94;4818397;28;102024;-77
2023/06/10 06:29:22;;;;;;;;;15.25;13.75;;;;;16.12;100.00;98253.38;4819400;28;102105;-78
2023/06/10 06:31:49;;;;;;;;;12.75;12.50;;;;;16.18;100.00;98257.84;4820783;28;102219;-77
2023/06/10 06:34:16;;;;;;;;;7.25;5.25;;;;;16.17;100.00;98267.09;4820483;28;105430;-77
2023/06/10 06:36:43;;;;;;;;;14.50;11.00;;;;;16.21;100.00;98260.09;4819144;29;102000;-77
2023/06/10 06:39:10;;;;;;;;;16.00;14.75;;;;;16.22;100.00;98264.47;4818390;28;102409;-78
2023/06/10 06:41:37;;;;;;;;;21.25;19.50;;;;;16.17;100.00;98270.66;4816075;28;103924;-78
2023/06/10 06:44:04;;;;;;;;;22.50;20.50;;;;;16.21;100.00;98271.81;4818478;28;104113;-81
2023/06/10 06:46:31;;;;;;;;;3.00;1.50;;;;;16.19;100.00;98276.69;4818503;28;103877;-79
2023/06/10 06:48:58;;;;;;;;;16.75;16.00;;;;;16.11;100.00;98279.84;4819028;29;101853;-79
2023/06/10 06:51:25;;;;;;;;;23.50;20.75;;;;;16.14;100.00;98273.03;4820510;29;102727;-80
2023/06/10 06:53:56;;;;;;;;;19.00;17.75;;;;;16.18;100.00;98277.78;4817168;29;104046;-80
2023/06/10 06:56:23;;;;;;;;;11.00;10.00;;;;;16.22;100.00;98280.81;4818764;28;102479;-79
2023/06/10 06:58:50;;;;;;;;;9.25;9.00;;;;;16.28;100.00;98268.94;4814744;29;102354;-80
2023/06/10 07:01:17;;;;;;;;;16.50;13.25;;;;;16.37;100.00;98281.13;4820014;29;103367;-79
2023/06/10 07:03:44;;;;;;;;;14.00;11.00;;;;;16.40;100.00;98288.81;4819553;29;108993;-79
2023/06/10 07:06:12;;;;;;;;;14.75;14.50;;;;;16.34;100.00;98279.72;4818744;28;103596;-78
2023/06/10 07:08:39;;;;;;;;;13.25;13.25;;;;;16.44;100.00;98290.78;4817449;29;102320;-79
2023/06/10 07:11:06;;;;;;;;;20.00;17.50;;;;;16.50;100.00;98289.00;4818667;29;104737;-79
2023/06/10 07:13:33;;;;;;;;;17.50;14.75;;;;;16.48;100.00;98291.94;4816828;28;103981;-79
2023/06/10 07:16:00;;;;;;;;;11.75;11.00;;;;;16.61;100.00;98304.50;4816682;29;102522;-79
2023/06/10 07:18:27;;;;;;;;;12.00;11.75;;;;;16.64;100.00;98284.91;4818143;29;102298;-78
2023/06/10 07:20:54;;;;;;;;;10.00;10.00;;;;;16.69;100.00;98282.25;4819135;28;102466;-77
2023/06/10 07:23:21;;;;;;;;;16.00;15.50;;;;;16.67;100.00;98295.31;4800914;28;103988;-77
2023/06/10 07:25:48;;;;;;;;;16.75;16.25;;;;;16.61;100.00;98290.88;4815309;28;102041;-76
2023/06/10 07:28:15;;;;;;;;;20.50;17.00;;;;;16.70;100.00;98297.56;4819571;29;102343;-77
2023/06/10 07:30:42;;;;;;;;;14.75;12.75;;;;;16.70;100.00;98300.31;4819151;28;103071;-76
2023/06/10 07:33:10;;;;;;;;;14.00;13.50;;;;;16.70;100.00;98294.84;4812261;28;103738;-77
2023/06/10 07:35:37;;;;;;;;;17.00;17.00;;;;;16.82;100.00;98298.31;4817383;29;103493;-77
2023/06/10 07:38:04;;;;;;;;;14.00;13.50;;;;;16.89;100.00;98292.66;4818598;29;102059;-76
2023/06/10 07:40:31;;;;;;;;;15.00;14.00;;;;;16.87;100.00;98295.66;4818411;29;102110;-77
2023/06/10 07:43:01;;;;;;;;;13.50;12.00;;;;;17.05;100.00;98297.31;4817697;29;104092;-77
2023/06/10 07:45:28;;;;;;;;;17.00;15.25;;;;;17.20;100.00;98294.78;4819098;28;101973;-76
2023/06/10 07:47:55;;;;;;;;;13.75;13.75;;;;;17.19;100.00;98303.25;4811035;29;102408;-76
2023/06/10 07:50:22;;;;;;;;;20.75;19.75;;;;;17.15;100.00;98297.47;4819571;29;102462;-77
2023/06/10 07:52:50;;;;;;;;;18.25;16.25;;;;;17.33;100.00;98304.56;4816740;29;104522;-76
2023/06/10 07:55:17;;;;;;;;;17.25;16.75;;;;;17.43;100.00;98299.19;4819391;29;103986;-75
2023/06/10 07:57:44;;;;;;;;;14.75;14.00;;;;;17.73;100.00;98287.91;4809327;28;102634;-76
2023/06/10 08:00:11;;;;;;;;;19.00;17.00;;;;;17.94;100.00;98289.78;4818505;28;102403;-76
2023/06/10 08:02:39;;;;;;;;;20.00;19.75;;;;;18.11;100.00;98300.63;4817144;29;104022;-76
2023/06/10 08:05:06;;;;;;;;;19.00;17.25;;;;;18.46;100.00;98292.78;4816722;28;102300;-76
2023/06/10 08:07:34;;;;;;;;;19.25;18.75;;;;;18.68;100.00;98290.88;4815647;28;102414;-76
2023/06/10 08:10:02;;;;;;;;;19.25;19.25;;;;;18.97;100.00;98293.25;4819076;29;103784;-75
2023/06/10 08:12:29;;;;;;;;;19.00;18.75;;;;;19.15;100.00;98301.06;4807915;28;104033;-75
2023/06/10 08:14:56;;;;;;;;;26.00;24.75;;;;;19.01;100.00;98297.13;4814679;29;102323;-75
2023/06/10 08:17:24;;;;;;;;;19.75;19.25;;;;;19.28;100.00;98300.63;4819517;28;102266;-75
2023/06/10 08:19:51;;;;;;;;;18.00;17.67;;;;;19.28;100.00;98303.34;4821054;29;102462;-74
2023/06/10 08:22:18;;;;;;;;;14.00;13.33;;;;;19.53;100.00;98298.06;4818998;28;104000;-76
2023/06/10 08:24:45;;;;;;;;;21.50;20.75;;;;;19.52;100.00;98295.59;4822171;29;102287;-76
2023/06/10 08:27:15;;;;;;;;;20.33;19.67;;;;;19.32;100.00;98299.00;4821968;28;102223;-76
2023/06/10 08:29:42;;;;;;;;;21.67;21.33;;;;;19.33;100.00;98300.66;4822563;28;102117;-75
2023/06/10 08:59:03;;;;;;;;;20.00;19.50;;;;;19.77;100.00;98308.63;4232890;23;103955;-80
2023/06/10 09:01:56;;;;;;;;;16.00;15.33;;;;;19.91;99.94;98316.06;4867361;28;103559;-81
2023/06/10 09:04:27;;;;;;;;;20.00;16.00;;;;;20.10;100.00;98318.34;4871908;28;102767;-80
2023/06/10 09:06:56;;;;;;;;;16.67;16.33;;;;;20.15;99.72;98319.19;4873493;28;101680;-81
2023/06/10 09:09:25;;;;;;;;;18.33;17.67;;;;;20.30;99.71;98319.28;4888896;28;101713;-80
2023/06/10 09:11:52;;;;;;;;;20.67;20.00;;;;;20.42;99.11;98310.78;4872441;28;103350;-82
2023/06/10 09:14:19;;;;;;;;;19.00;19.00;;;;;20.37;96.29;98319.84;4872791;28;105108;-82
2023/06/10 09:16:48;;;;;;;;;21.67;20.00;;;;;20.31;97.82;98318.16;4872734;28;101511;-82
2023/06/10 09:19:17;;;;;;;;;16.33;16.33;;;;;20.19;100.00;98322.22;4876302;28;101798;-84
2023/06/10 09:21:44;;;;;;;;;15.00;14.67;;;;;20.15;99.55;98321.94;4874215;28;106809;-83
2023/06/10 09:24:11;;;;;;;;;14.00;13.00;;;;;20.20;98.74;98316.47;4876386;28;101686;-84
2023/06/10 09:26:38;;;;;;;;;20.00;19.33;;;;;20.52;97.63;98315.47;4869897;28;102053;-84
2023/06/10 09:29:08;;;;;;;;;16.67;16.00;;;;;20.58;97.53;98306.16;4866464;28;101577;-85
2023/06/10 09:31:36;;;;;;;;;15.67;15.00;;;;;20.88;95.31;98308.91;4871760;28;104288;-81
2023/06/10 09:34:07;;;;;;;;;15.67;15.33;;;;;20.85;93.17;98312.19;4873129;28;101925;-82
2023/06/10 09:36:36;;;;;;;;;15.00;15.00;;;;;20.87;95.80;98319.09;4870719;28;101996;-82
2023/06/10 09:39:03;;;;;;;;;15.67;14.67;;;;;20.59;96.69;98294.03;4869161;28;102340;-81
2023/06/10 09:41:35;;;;;;;;;14.33;14.33;;;;;20.53;93.47;98308.88;4872231;28;103355;-80
2023/06/10 09:44:08;;;;;;;;;9.67;9.00;;;;;20.53;93.42;98300.66;4869452;28;101955;-81
2023/06/10 09:46:36;;;;;;;;;12.33;12.33;;;;;20.43;94.00;98318.75;4872011;28;101525;-81
2023/06/10 09:49:03;;;;;;;;;20.00;19.00;;;;;20.40;90.33;98288.25;4874688;28;101871;-81
2023/06/10 09:51:30;;;;;;;;;15.00;14.67;;;;;20.84;92.38;98313.31;4873543;28;103284;-80
2023/06/10 09:53:58;;;;;;;;;12.00;12.00;;;;;20.97;94.38;98323.75;4874872;28;101551;-81
2023/06/10 09:56:42;;;;;;;;;13.00;13.00;;;;;21.09;94.23;98324.31;4873811;28;101570;-79
2023/06/10 09:59:09;;;;;;;;;15.33;12.67;;;;;21.20;92.35;98320.50;4873109;28;105629;-79
2023/06/10 10:01:36;;;;;;;;;14.67;14.33;;;;;21.03;89.01;98322.63;4869303;28;103494;-80
2023/06/10 10:04:03;;;;;;;;;12.33;11.00;;;;;20.95;90.76;98323.19;4873647;28;101640;-79
2023/06/10 10:06:31;;;;;;;;;12.00;11.00;;;;;21.07;91.97;98317.44;4864876;28;102205;-79
2023/06/10 10:08:58;;;;;;;;;13.00;11.67;;;;;20.96;89.31;98316.59;4875725;28;102246;-80
2023/06/10 10:11:27;;;;;;;;;13.00;13.00;;;;;20.94;89.05;98324.28;4865482;28;104007;-79
2023/06/10 10:13:54;;;;;;;;;12.33;12.00;;;;;20.97;89.88;98321.00;4871549;28;101624;-79
2023/06/10 10:16:39;;;;;;;;;13.67;13.67;;;;;20.94;89.00;98324.28;4871339;28;101642;-80
2023/06/10 10:19:20;;;;;;;;;13.67;12.00;;;;;21.01;87.37;98324.84;4876551;28;101724;-75
2023/06/10 10:21:54;;;;;;;;;13.00;11.00;;;;;20.89;87.89;98327.88;4873412;28;107984;-77
2023/06/10 10:24:27;;;;;;;;;14.67;13.33;;;;;20.90;86.72;98323.19;4873239;28;101749;-76
2023/06/10 10:26:58;;;;;;;;;14.00;13.00;;;;;20.81;87.03;98322.09;4869138;28;101583;-78
2023/06/10 10:29:39;;;;;;;;;15.00;13.00;;;;;20.92;87.57;98323.75;4875877;28;102122;-77
2023/06/10 10:32:13;;;;;;;;;10.67;10.00;;;;;21.21;89.21;98326.78;4872891;28;103575;-79
2023/06/10 10:34:49;;;;;;;;;10.67;10.33;;;;;21.24;84.85;98318.84;4875254;28;102276;-77
2023/06/10 10:37:17;;;;;;;;;15.67;15.00;;;;;20.96;85.19;98324.03;4869426;28;101808;-80
2023/06/10 10:39:45;;;;;;;;;15.00;15.00;;;;;20.59;85.64;98318.75;4872120;28;101848;-80
2023/06/10 10:42:13;;;;;;;;;11.00;11.00;;;;;20.68;88.21;98325.38;4868440;28;103432;-79
2023/06/10 10:44:41;;;;;;;;;10.33;10.33;;;;;21.01;88.51;98324.03;4875389;28;101488;-80
2023/06/10 10:47:09;;;;;;;;;13.00;12.00;;;;;20.98;87.98;98328.16;4872940;28;101470;-81
2023/06/10 10:49:38;;;;;;;;;13.33;12.33;;;;;20.82;84.61;98321.00;4873675;28;101568;-81
2023/06/10 10:52:11;;;;;;;;;12.00;12.00;;;;;20.96;83.58;98319.34;4870288;28;103393;-82
2023/06/10 10:54:44;;;;;;;;;11.67;11.67;;;;;21.11;83.51;98326.78;4869708;28;101653;-81
2023/06/10 10:57:17;;;;;;;;;11.00;11.00;;;;;21.11;85.98;98327.63;4870793;28;101960;-81
2023/06/10 10:59:56;;;;;;;;;9.33;9.33;;;;;21.33;82.00;98339.19;4875400;28;102085;-81
2023/06/10 11:02:43;;;;;;;;;10.33;10.33;;;;;21.31;81.55;98326.78;4866630;28;108342;-76
2023/06/10 11:05:13;;;;;;;;;11.67;11.00;;;;;21.38;80.97;98312.75;4877795;28;101491;-81
2023/06/10 11:07:52;;;;;;;;;12.33;11.33;;;;;21.32;80.41;98320.19;4873502;28;101620;-80
2023/06/10 11:10:29;;;;;;;;;12.00;11.00;;;;;21.46;81.31;98321.28;4873551;28;101790;-79
2023/06/10 11:12:57;;;;;;;;;12.00;11.00;;;;;21.30;82.86;98314.13;4866482;28;108980;-77
2023/06/10 11:15:26;;;;;;;;;11.00;10.67;;;;;21.53;82.65;98318.22;4871152;28;103786;-75
2023/06/10 11:18:22;;;;;;;;;12.33;12.00;;;;;21.77;81.98;98311.84;4872109;28;101707;-78
2023/06/10 11:20:49;;;;;;;;;12.33;12.00;;;;;21.71;80.40;98312.13;4871503;28;101920;-80
2023/06/10 11:23:32;;;;;;;;;12.00;12.00;;;;;21.95;82.30;98302.16;4873235;28;103559;-80
2023/06/10 11:26:15;;;;;;;;;13.33;12.00;;;;;22.07;80.09;98307.31;4867825;28;101601;-80
2023/06/10 11:29:02;;;;;;;;;12.00;12.00;;;;;22.10;79.75;98277.31;4869682;28;101776;-82
2023/06/10 11:31:40;;;;;;;;;10.67;10.00;;;;;22.37;77.60;98298.94;4866060;28;101808;-80
2023/06/10 11:34:08;;;;;;;;;11.67;11.00;;;;;21.99;76.21;98303.25;4868896;28;103382;-80
2023/06/10 11:36:42;;;;;;;;;10.33;9.67;;;;;21.99;80.32;98308.75;4868673;28;101608;-79
2023/06/10 11:39:10;;;;;;;;;13.00;13.00;;;;;21.76;77.54;98310.19;4871806;28;106726;-81
2023/06/10 11:41:38;;;;;;;;;11.00;9.33;;;;;21.73;79.84;98302.50;4868708;28;101538;-79
2023/06/10 11:44:13;;;;;;;;;13.00;13.00;;;;;21.92;81.14;98301.88;4868653;28;103707;-81